sensor_id;sensor_type;location;lat;lon;timestamp;temperature;humidity
25436;DHT22;13363;52.772;-3.890;2022-11-20T00:01:51;9.50;99.90
25436;DHT22;13363;52.772;-3.890;2022-11-20T00:04:17;9.50;99.90
25436;DHT22;13363;52.772;-3.890;2022-11-20T00:10:11;9.50;99.90
25436;DHT22;13363;52.772;-3.890;2022-11-20T00:12:37;9.50;99.90
25436;DHT22;13363;52.772;-3.890;2022-11-20T00:15:03;9.60;99.90
25436;DHT22;13363;52.772;-3.890;2022-11-20T00:17:29;9.60;99.90
25436;DHT22;13363;52.772;-3.890;2022-11-20T00:19:55;9.50;99.90
25436;DHT22;13363;52.772;-3.890;2022-11-20T00:22:21;9.60;99.90
25436;DHT22;13363;52.772;-3.890;2022-11-20T00:24:47;9.60;99.90
25436;DHT22;13363;52.772;-3.890;2022-11-20T00:27:13;9.60;99.90
25436;DHT22;13363;52.772;-3.890;2022-11-20T00:29:38;9.60;99.90
25436;DHT22;13363;52.772;-3.890;2022-11-20T00:32:04;9.60;99.90
25436;DHT22;13363;52.772;-3.890;2022-11-20T00:34:30;9.60;99.90
25436;DHT22;13363;52.772;-3.890;2022-11-20T00:36:56;9.80;99.90
25436;DHT22;13363;52.772;-3.890;2022-11-20T00:39:22;9.80;99.90
25436;DHT22;13363;52.772;-3.890;2022-11-20T00:41:47;9.70;99.90
25436;DHT22;13363;52.772;-3.890;2022-11-20T00:44:13;9.70;99.90
25436;DHT22;13363;52.772;-3.890;2022-11-20T00:46:39;9.80;99.90
25436;DHT22;13363;52.772;-3.890;2022-11-20T00:49:05;9.90;99.90
25436;DHT22;13363;52.772;-3.890;2022-11-20T00:51:30;9.90;99.90
25436;DHT22;13363;52.772;-3.890;2022-11-20T00:53:57;9.90;99.90
25436;DHT22;13363;52.772;-3.890;2022-11-20T00:56:25;10.00;99.90
25436;DHT22;13363;52.772;-3.890;2022-11-20T00:58:51;10.00;99.90
25436;DHT22;13363;52.772;-3.890;2022-11-20T01:01:22;10.00;99.90
25436;DHT22;13363;52.772;-3.890;2022-11-20T01:03:50;10.00;99.90
25436;DHT22;13363;52.772;-3.890;2022-11-20T01:06:34;10.00;99.90
25436;DHT22;13363;52.772;-3.890;2022-11-20T01:09:06;10.00;99.90
25436;DHT22;13363;52.772;-3.890;2022-11-20T01:11:34;9.90;99.90
25436;DHT22;13363;52.772;-3.890;2022-11-20T01:14:01;9.90;99.90
25436;DHT22;13363;52.772;-3.890;2022-11-20T01:16:48;9.80;99.90
25436;DHT22;13363;52.772;-3.890;2022-11-20T01:19:18;9.80;99.90
25436;DHT22;13363;52.772;-3.890;2022-11-20T01:21:46;9.80;99.90
25436;DHT22;13363;52.772;-3.890;2022-11-20T01:24:15;9.90;99.90
25436;DHT22;13363;52.772;-3.890;2022-11-20T01:26:42;10.00;99.90
25436;DHT22;13363;52.772;-3.890;2022-11-20T01:29:23;10.00;99.90
25436;DHT22;13363;52.772;-3.890;2022-11-20T01:31:49;10.00;99.90
25436;DHT22;13363;52.772;-3.890;2022-11-20T01:34:18;10.00;99.90
25436;DHT22;13363;52.772;-3.890;2022-11-20T01:36:45;10.00;99.90
25436;DHT22;13363;52.772;-3.890;2022-11-20T01:39:17;10.10;99.90
25436;DHT22;13363;52.772;-3.890;2022-11-20T01:41:44;10.10;99.90
25436;DHT22;13363;52.772;-3.890;2022-11-20T01:47:27;10.20;99.90
25436;DHT22;13363;52.772;-3.890;2022-11-20T01:50:26;10.10;99.90
25436;DHT22;13363;52.772;-3.890;2022-11-20T01:53:03;10.10;99.90
25436;DHT22;13363;52.772;-3.890;2022-11-20T01:55:36;10.10;99.90
25436;DHT22;13363;52.772;-3.890;2022-11-20T01:58:04;10.00;99.90
25436;DHT22;13363;52.772;-3.890;2022-11-20T02:00:30;10.00;99.90
25436;DHT22;13363;52.772;-3.890;2022-11-20T02:03:11;9.90;99.90
25436;DHT22;13363;52.772;-3.890;2022-11-20T02:06:02;9.90;99.90
25436;DHT22;13363;52.772;-3.890;2022-11-20T02:08:38;9.90;99.90
25436;DHT22;13363;52.772;-3.890;2022-11-20T02:11:04;9.80;99.90
25436;DHT22;13363;52.772;-3.890;2022-11-20T02:13:30;9.80;99.90
25436;DHT22;13363;52.772;-3.890;2022-11-20T02:16:14;9.90;99.90
25436;DHT22;13363;52.772;-3.890;2022-11-20T02:18:42;9.80;99.90
25436;DHT22;13363;52.772;-3.890;2022-11-20T02:21:37;9.80;99.90
25436;DHT22;13363;52.772;-3.890;2022-11-20T02:26:40;9.70;99.90
25436;DHT22;13363;52.772;-3.890;2022-11-20T02:29:07;9.60;99.90
25436;DHT22;13363;52.772;-3.890;2022-11-20T02:31:41;9.60;99.90
25436;DHT22;13363;52.772;-3.890;2022-11-20T02:34:08;9.60;99.90
25436;DHT22;13363;52.772;-3.890;2022-11-20T02:36:35;9.80;99.90
25436;DHT22;13363;52.772;-3.890;2022-11-20T02:39:03;9.80;99.90
25436;DHT22;13363;52.772;-3.890;2022-11-20T02:41:37;9.70;99.90
25436;DHT22;13363;52.772;-3.890;2022-11-20T02:44:04;9.70;99.90
25436;DHT22;13363;52.772;-3.890;2022-11-20T02:46:31;9.60;99.90
25436;DHT22;13363;52.772;-3.890;2022-11-20T02:48:57;9.60;99.90
25436;DHT22;13363;52.772;-3.890;2022-11-20T02:51:23;9.50;99.90
25436;DHT22;13363;52.772;-3.890;2022-11-20T02:53:49;9.50;99.90
25436;DHT22;13363;52.772;-3.890;2022-11-20T02:56:15;9.40;99.90
25436;DHT22;13363;52.772;-3.890;2022-11-20T02:58:41;9.40;99.90
25436;DHT22;13363;52.772;-3.890;2022-11-20T03:01:07;9.30;99.90
25436;DHT22;13363;52.772;-3.890;2022-11-20T03:03:33;9.50;99.90
25436;DHT22;13363;52.772;-3.890;2022-11-20T03:05:59;9.40;99.90
25436;DHT22;13363;52.772;-3.890;2022-11-20T03:08:25;9.40;99.90
25436;DHT22;13363;52.772;-3.890;2022-11-20T03:10:51;9.50;99.90
25436;DHT22;13363;52.772;-3.890;2022-11-20T03:13:17;9.40;99.90
25436;DHT22;13363;52.772;-3.890;2022-11-20T03:15:43;9.40;99.90
25436;DHT22;13363;52.772;-3.890;2022-11-20T03:18:09;9.50;99.90
25436;DHT22;13363;52.772;-3.890;2022-11-20T03:20:35;9.40;99.90
25436;DHT22;13363;52.772;-3.890;2022-11-20T03:23:01;9.70;99.90
25436;DHT22;13363;52.772;-3.890;2022-11-20T03:25:27;9.60;99.90
25436;DHT22;13363;52.772;-3.890;2022-11-20T03:27:54;9.60;99.90
25436;DHT22;13363;52.772;-3.890;2022-11-20T03:30:20;9.60;99.90
25436;DHT22;13363;52.772;-3.890;2022-11-20T03:32:46;9.60;99.90
25436;DHT22;13363;52.772;-3.890;2022-11-20T03:35:12;9.60;99.90
25436;DHT22;13363;52.772;-3.890;2022-11-20T03:37:38;9.60;99.90
25436;DHT22;13363;52.772;-3.890;2022-11-20T03:40:04;9.60;99.90
25436;DHT22;13363;52.772;-3.890;2022-11-20T03:42:30;9.60;99.90
25436;DHT22;13363;52.772;-3.890;2022-11-20T03:45:11;9.60;99.90
25436;DHT22;13363;52.772;-3.890;2022-11-20T03:47:37;9.60;99.90
25436;DHT22;13363;52.772;-3.890;2022-11-20T03:50:03;9.60;99.90
25436;DHT22;13363;52.772;-3.890;2022-11-20T03:52:29;9.60;99.90
25436;DHT22;13363;52.772;-3.890;2022-11-20T03:54:55;9.50;99.90
25436;DHT22;13363;52.772;-3.890;2022-11-20T03:57:21;9.50;99.90
25436;DHT22;13363;52.772;-3.890;2022-11-20T03:59:47;9.40;99.90
25436;DHT22;13363;52.772;-3.890;2022-11-20T04:02:13;9.40;99.90
25436;DHT22;13363;52.772;-3.890;2022-11-20T04:04:39;9.50;99.90
25436;DHT22;13363;52.772;-3.890;2022-11-20T04:07:05;9.40;99.90
25436;DHT22;13363;52.772;-3.890;2022-11-20T04:09:30;9.50;99.90
25436;DHT22;13363;52.772;-3.890;2022-11-20T04:11:56;9.50;99.90
25436;DHT22;13363;52.772;-3.890;2022-11-20T04:14:22;9.40;99.90
25436;DHT22;13363;52.772;-3.890;2022-11-20T04:16:48;9.40;99.90
25436;DHT22;13363;52.772;-3.890;2022-11-20T04:19:15;9.40;99.90
25436;DHT22;13363;52.772;-3.890;2022-11-20T04:21:43;9.40;99.90
25436;DHT22;13363;52.772;-3.890;2022-11-20T04:24:10;9.40;99.90
25436;DHT22;13363;52.772;-3.890;2022-11-20T04:26:36;9.40;99.90
25436;DHT22;13363;52.772;-3.890;2022-11-20T04:29:03;9.40;99.90
25436;DHT22;13363;52.772;-3.890;2022-11-20T04:31:31;9.40;99.90
25436;DHT22;13363;52.772;-3.890;2022-11-20T04:34:02;9.30;99.90
25436;DHT22;13363;52.772;-3.890;2022-11-20T04:36:29;9.30;99.90
25436;DHT22;13363;52.772;-3.890;2022-11-20T04:39:00;9.30;99.90
25436;DHT22;13363;52.772;-3.890;2022-11-20T04:41:28;9.30;99.90
25436;DHT22;13363;52.772;-3.890;2022-11-20T04:43:57;9.30;99.90
25436;DHT22;13363;52.772;-3.890;2022-11-20T04:46:26;9.30;99.90
25436;DHT22;13363;52.772;-3.890;2022-11-20T04:48:52;9.40;99.90
25436;DHT22;13363;52.772;-3.890;2022-11-20T04:51:18;9.50;99.90
25436;DHT22;13363;52.772;-3.890;2022-11-20T04:53:44;9.50;99.90
25436;DHT22;13363;52.772;-3.890;2022-11-20T04:56:11;9.50;99.90
25436;DHT22;13363;52.772;-3.890;2022-11-20T04:58:38;9.40;99.90
25436;DHT22;13363;52.772;-3.890;2022-11-20T05:01:15;9.40;99.90
25436;DHT22;13363;52.772;-3.890;2022-11-20T05:03:42;9.50;99.90
25436;DHT22;13363;52.772;-3.890;2022-11-20T05:06:10;9.40;99.90
25436;DHT22;13363;52.772;-3.890;2022-11-20T05:08:36;9.40;99.90
25436;DHT22;13363;52.772;-3.890;2022-11-20T05:11:07;9.30;99.90
25436;DHT22;13363;52.772;-3.890;2022-11-20T05:13:33;9.30;99.90
25436;DHT22;13363;52.772;-3.890;2022-11-20T05:16:18;9.30;99.90
25436;DHT22;13363;52.772;-3.890;2022-11-20T05:18:44;9.30;99.90
25436;DHT22;13363;52.772;-3.890;2022-11-20T05:21:11;9.30;99.90
25436;DHT22;13363;52.772;-3.890;2022-11-20T05:23:38;9.20;99.90
25436;DHT22;13363;52.772;-3.890;2022-11-20T05:26:04;9.20;99.90
25436;DHT22;13363;52.772;-3.890;2022-11-20T05:28:32;9.10;99.90
25436;DHT22;13363;52.772;-3.890;2022-11-20T05:31:09;9.10;99.90
25436;DHT22;13363;52.772;-3.890;2022-11-20T05:33:35;9.00;99.90
25436;DHT22;13363;52.772;-3.890;2022-11-20T05:36:03;8.80;99.90
25436;DHT22;13363;52.772;-3.890;2022-11-20T05:38:29;8.80;99.90
25436;DHT22;13363;52.772;-3.890;2022-11-20T05:40:55;8.70;99.90
25436;DHT22;13363;52.772;-3.890;2022-11-20T05:43:27;8.70;99.90
25436;DHT22;13363;52.772;-3.890;2022-11-20T05:45:54;8.70;99.90
25436;DHT22;13363;52.772;-3.890;2022-11-20T05:48:19;8.70;99.90
25436;DHT22;13363;52.772;-3.890;2022-11-20T05:50:47;8.70;99.90
25436;DHT22;13363;52.772;-3.890;2022-11-20T05:53:13;8.70;99.90
25436;DHT22;13363;52.772;-3.890;2022-11-20T05:55:38;8.70;99.90
25436;DHT22;13363;52.772;-3.890;2022-11-20T05:58:04;8.80;99.90
25436;DHT22;13363;52.772;-3.890;2022-11-20T06:00:30;8.80;99.90
25436;DHT22;13363;52.772;-3.890;2022-11-20T06:02:56;8.90;99.90
25436;DHT22;13363;52.772;-3.890;2022-11-20T06:05:22;8.90;99.90
25436;DHT22;13363;52.772;-3.890;2022-11-20T06:07:48;9.00;99.90
25436;DHT22;13363;52.772;-3.890;2022-11-20T06:10:13;9.00;99.90
25436;DHT22;13363;52.772;-3.890;2022-11-20T06:12:39;9.00;99.90
25436;DHT22;13363;52.772;-3.890;2022-11-20T06:15:05;9.20;99.90
25436;DHT22;13363;52.772;-3.890;2022-11-20T06:17:31;9.30;99.90
25436;DHT22;13363;52.772;-3.890;2022-11-20T06:19:57;9.40;99.90
25436;DHT22;13363;52.772;-3.890;2022-11-20T06:22:23;9.30;99.90
25436;DHT22;13363;52.772;-3.890;2022-11-20T06:24:49;9.20;99.90
25436;DHT22;13363;52.772;-3.890;2022-11-20T06:27:15;9.10;99.90
25436;DHT22;13363;52.772;-3.890;2022-11-20T06:29:41;9.00;99.90
25436;DHT22;13363;52.772;-3.890;2022-11-20T06:32:07;8.90;99.90
25436;DHT22;13363;52.772;-3.890;2022-11-20T06:34:33;8.80;99.90
25436;DHT22;13363;52.772;-3.890;2022-11-20T06:36:59;8.70;99.90
25436;DHT22;13363;52.772;-3.890;2022-11-20T06:39:24;8.60;99.90
25436;DHT22;13363;52.772;-3.890;2022-11-20T06:41:50;8.50;99.90
25436;DHT22;13363;52.772;-3.890;2022-11-20T06:44:16;8.50;99.90
25436;DHT22;13363;52.772;-3.890;2022-11-20T06:46:42;8.40;99.90
25436;DHT22;13363;52.772;-3.890;2022-11-20T06:49:08;8.30;99.90
25436;DHT22;13363;52.772;-3.890;2022-11-20T06:51:33;8.30;99.90
25436;DHT22;13363;52.772;-3.890;2022-11-20T06:53:59;8.30;99.90
25436;DHT22;13363;52.772;-3.890;2022-11-20T06:56:26;8.30;99.90
25436;DHT22;13363;52.772;-3.890;2022-11-20T06:58:52;8.30;99.90
25436;DHT22;13363;52.772;-3.890;2022-11-20T07:01:18;8.30;99.90
25436;DHT22;13363;52.772;-3.890;2022-11-20T07:03:44;8.50;99.90
25436;DHT22;13363;52.772;-3.890;2022-11-20T07:06:10;8.50;99.90
25436;DHT22;13363;52.772;-3.890;2022-11-20T07:08:36;8.60;99.90
25436;DHT22;13363;52.772;-3.890;2022-11-20T07:11:06;8.60;99.90
25436;DHT22;13363;52.772;-3.890;2022-11-20T07:13:32;8.60;99.90
25436;DHT22;13363;52.772;-3.890;2022-11-20T07:16:04;8.60;99.90
25436;DHT22;13363;52.772;-3.890;2022-11-20T07:18:31;8.70;99.90
25436;DHT22;13363;52.772;-3.890;2022-11-20T07:21:00;8.80;99.90
25436;DHT22;13363;52.772;-3.890;2022-11-20T07:23:26;8.90;99.90
25436;DHT22;13363;52.772;-3.890;2022-11-20T07:25:52;8.90;99.90
25436;DHT22;13363;52.772;-3.890;2022-11-20T07:28:18;9.00;99.90
25436;DHT22;13363;52.772;-3.890;2022-11-20T07:30:51;8.90;99.90
25436;DHT22;13363;52.772;-3.890;2022-11-20T07:33:17;8.90;99.90
25436;DHT22;13363;52.772;-3.890;2022-11-20T07:35:43;8.90;99.90
25436;DHT22;13363;52.772;-3.890;2022-11-20T07:38:09;8.90;99.90
25436;DHT22;13363;52.772;-3.890;2022-11-20T07:40:34;8.90;99.90
25436;DHT22;13363;52.772;-3.890;2022-11-20T07:43:00;9.00;99.90
25436;DHT22;13363;52.772;-3.890;2022-11-20T07:45:26;9.00;99.90
25436;DHT22;13363;52.772;-3.890;2022-11-20T07:47:52;9.00;99.90
25436;DHT22;13363;52.772;-3.890;2022-11-20T07:50:19;8.90;99.90
25436;DHT22;13363;52.772;-3.890;2022-11-20T07:52:44;8.90;99.90
25436;DHT22;13363;52.772;-3.890;2022-11-20T07:55:11;8.90;99.90
25436;DHT22;13363;52.772;-3.890;2022-11-20T07:57:37;8.90;99.90
25436;DHT22;13363;52.772;-3.890;2022-11-20T08:00:04;8.80;99.90
25436;DHT22;13363;52.772;-3.890;2022-11-20T08:02:31;8.80;99.90
25436;DHT22;13363;52.772;-3.890;2022-11-20T08:04:56;8.70;99.90
25436;DHT22;13363;52.772;-3.890;2022-11-20T08:07:22;8.60;99.90
25436;DHT22;13363;52.772;-3.890;2022-11-20T08:09:48;8.50;99.90
25436;DHT22;13363;52.772;-3.890;2022-11-20T08:12:21;8.50;99.90
25436;DHT22;13363;52.772;-3.890;2022-11-20T08:15:06;8.50;99.90
25436;DHT22;13363;52.772;-3.890;2022-11-20T08:17:32;8.40;99.90
25436;DHT22;13363;52.772;-3.890;2022-11-20T08:19:58;8.40;99.90
25436;DHT22;13363;52.772;-3.890;2022-11-20T08:22:24;8.40;99.90
25436;DHT22;13363;52.772;-3.890;2022-11-20T08:24:50;8.40;99.90
25436;DHT22;13363;52.772;-3.890;2022-11-20T08:27:16;8.40;99.90
25436;DHT22;13363;52.772;-3.890;2022-11-20T08:29:42;8.40;99.90
25436;DHT22;13363;52.772;-3.890;2022-11-20T08:32:08;8.40;99.90
25436;DHT22;13363;52.772;-3.890;2022-11-20T08:34:34;8.40;99.90
25436;DHT22;13363;52.772;-3.890;2022-11-20T08:37:01;8.40;99.90
25436;DHT22;13363;52.772;-3.890;2022-11-20T08:39:27;8.50;99.90
25436;DHT22;13363;52.772;-3.890;2022-11-20T08:41:53;8.50;99.90
25436;DHT22;13363;52.772;-3.890;2022-11-20T08:44:19;8.50;99.90
25436;DHT22;13363;52.772;-3.890;2022-11-20T08:46:44;8.50;99.90
25436;DHT22;13363;52.772;-3.890;2022-11-20T08:49:12;8.50;99.90
25436;DHT22;13363;52.772;-3.890;2022-11-20T08:51:39;8.50;99.90
25436;DHT22;13363;52.772;-3.890;2022-11-20T08:54:05;8.60;99.90
25436;DHT22;13363;52.772;-3.890;2022-11-20T08:56:32;8.70;99.90
25436;DHT22;13363;52.772;-3.890;2022-11-20T08:58:58;8.70;99.90
25436;DHT22;13363;52.772;-3.890;2022-11-20T09:01:27;8.80;99.90
25436;DHT22;13363;52.772;-3.890;2022-11-20T09:03:57;8.80;99.90
25436;DHT22;13363;52.772;-3.890;2022-11-20T09:06:25;8.90;99.90
25436;DHT22;13363;52.772;-3.890;2022-11-20T09:08:54;8.90;99.90
25436;DHT22;13363;52.772;-3.890;2022-11-20T09:11:20;8.90;99.90
25436;DHT22;13363;52.772;-3.890;2022-11-20T09:13:46;8.90;99.90
25436;DHT22;13363;52.772;-3.890;2022-11-20T09:16:12;9.00;99.90
25436;DHT22;13363;52.772;-3.890;2022-11-20T09:18:38;9.30;99.90
25436;DHT22;13363;52.772;-3.890;2022-11-20T09:21:11;9.40;99.90
25436;DHT22;13363;52.772;-3.890;2022-11-20T09:23:38;9.50;99.90
25436;DHT22;13363;52.772;-3.890;2022-11-20T09:26:11;9.60;99.90
25436;DHT22;13363;52.772;-3.890;2022-11-20T09:28:37;9.70;99.90
25436;DHT22;13363;52.772;-3.890;2022-11-20T09:31:24;9.60;99.90
25436;DHT22;13363;52.772;-3.890;2022-11-20T09:33:51;9.60;99.90
25436;DHT22;13363;52.772;-3.890;2022-11-20T09:36:18;9.60;99.90
25436;DHT22;13363;52.772;-3.890;2022-11-20T09:38:45;9.50;99.90
25436;DHT22;13363;52.772;-3.890;2022-11-20T09:47:08;9.50;99.90
25436;DHT22;13363;52.772;-3.890;2022-11-20T09:52:41;9.50;99.90
25436;DHT22;13363;52.772;-3.890;2022-11-20T09:55:12;9.50;99.90
25436;DHT22;13363;52.772;-3.890;2022-11-20T09:57:42;9.60;99.90
25436;DHT22;13363;52.772;-3.890;2022-11-20T10:00:13;9.60;99.90
25436;DHT22;13363;52.772;-3.890;2022-11-20T10:05:31;10.00;99.90
25436;DHT22;13363;52.772;-3.890;2022-11-20T10:13:29;11.40;99.90
25436;DHT22;13363;52.772;-3.890;2022-11-20T10:19:44;13.10;99.90
25436;DHT22;13363;52.772;-3.890;2022-11-20T10:25:18;13.60;99.90
25436;DHT22;13363;52.772;-3.890;2022-11-20T10:30:42;13.30;99.90
25436;DHT22;13363;52.772;-3.890;2022-11-20T10:33:17;13.10;99.90
25436;DHT22;13363;52.772;-3.890;2022-11-20T10:36:02;12.80;99.90
25436;DHT22;13363;52.772;-3.890;2022-11-20T10:38:44;12.60;99.90
25436;DHT22;13363;52.772;-3.890;2022-11-20T10:41:27;12.30;99.90
25436;DHT22;13363;52.772;-3.890;2022-11-20T10:44:39;12.00;99.90
25436;DHT22;13363;52.772;-3.890;2022-11-20T10:47:17;11.90;99.90
25436;DHT22;13363;52.772;-3.890;2022-11-20T10:49:48;11.70;99.90
25436;DHT22;13363;52.772;-3.890;2022-11-20T10:52:53;11.60;99.90
25436;DHT22;13363;52.772;-3.890;2022-11-20T10:55:45;11.60;99.90
25436;DHT22;13363;52.772;-3.890;2022-11-20T11:01:15;11.40;99.90
25436;DHT22;13363;52.772;-3.890;2022-11-20T11:03:42;11.40;99.90
25436;DHT22;13363;52.772;-3.890;2022-11-20T11:06:33;11.30;99.90
25436;DHT22;13363;52.772;-3.890;2022-11-20T11:09:08;11.20;99.90
25436;DHT22;13363;52.772;-3.890;2022-11-20T11:11:35;11.20;99.90
25436;DHT22;13363;52.772;-3.890;2022-11-20T11:14:08;11.10;99.90
25436;DHT22;13363;52.772;-3.890;2022-11-20T11:16:34;11.10;99.90
25436;DHT22;13363;52.772;-3.890;2022-11-20T11:19:12;11.00;99.90
25436;DHT22;13363;52.772;-3.890;2022-11-20T11:21:51;11.00;99.90
25436;DHT22;13363;52.772;-3.890;2022-11-20T11:24:28;10.80;99.90
25436;DHT22;13363;52.772;-3.890;2022-11-20T11:26:58;10.80;99.90
25436;DHT22;13363;52.772;-3.890;2022-11-20T11:29:25;10.70;99.90
25436;DHT22;13363;52.772;-3.890;2022-11-20T11:32:10;10.60;99.90
25436;DHT22;13363;52.772;-3.890;2022-11-20T11:34:37;10.50;99.90
25436;DHT22;13363;52.772;-3.890;2022-11-20T11:37:03;10.40;99.90
25436;DHT22;13363;52.772;-3.890;2022-11-20T11:39:31;10.30;99.90
25436;DHT22;13363;52.772;-3.890;2022-11-20T11:42:00;10.30;99.90
25436;DHT22;13363;52.772;-3.890;2022-11-20T11:44:35;10.20;99.90
25436;DHT22;13363;52.772;-3.890;2022-11-20T11:47:29;10.20;99.90
25436;DHT22;13363;52.772;-3.890;2022-11-20T11:50:18;10.60;99.90
25436;DHT22;13363;52.772;-3.890;2022-11-20T11:53:11;10.20;99.90
25436;DHT22;13363;52.772;-3.890;2022-11-20T11:56:04;9.80;99.90
25436;DHT22;13363;52.772;-3.890;2022-11-20T11:58:44;9.60;99.90
25436;DHT22;13363;52.772;-3.890;2022-11-20T12:03:40;9.30;99.90
25436;DHT22;13363;52.772;-3.890;2022-11-20T12:06:15;9.30;99.90
25436;DHT22;13363;52.772;-3.890;2022-11-20T12:09:02;9.20;99.90
25436;DHT22;13363;52.772;-3.890;2022-11-20T12:11:49;9.20;99.90
25436;DHT22;13363;52.772;-3.890;2022-11-20T12:14:21;9.20;99.90
25436;DHT22;13363;52.772;-3.890;2022-11-20T12:16:52;9.20;99.90
25436;DHT22;13363;52.772;-3.890;2022-11-20T12:19:21;9.20;99.90
25436;DHT22;13363;52.772;-3.890;2022-11-20T12:22:14;9.20;99.90
25436;DHT22;13363;52.772;-3.890;2022-11-20T12:25:07;9.10;99.90
25436;DHT22;13363;52.772;-3.890;2022-11-20T12:28:08;9.20;99.90
25436;DHT22;13363;52.772;-3.890;2022-11-20T12:31:06;9.10;99.90
25436;DHT22;13363;52.772;-3.890;2022-11-20T12:33:57;9.10;99.90
25436;DHT22;13363;52.772;-3.890;2022-11-20T12:36:45;9.00;99.90
25436;DHT22;13363;52.772;-3.890;2022-11-20T12:39:34;9.10;99.90
25436;DHT22;13363;52.772;-3.890;2022-11-20T12:45:25;9.20;99.90
25436;DHT22;13363;52.772;-3.890;2022-11-20T12:48:06;9.30;99.90
25436;DHT22;13363;52.772;-3.890;2022-11-20T12:57:08;9.20;99.90
25436;DHT22;13363;52.772;-3.890;2022-11-20T12:59:54;9.10;99.90
25436;DHT22;13363;52.772;-3.890;2022-11-20T13:08:20;9.20;99.90
25436;DHT22;13363;52.772;-3.890;2022-11-20T13:16:19;9.20;99.90
25436;DHT22;13363;52.772;-3.890;2022-11-20T13:18:49;9.30;99.90
25436;DHT22;13363;52.772;-3.890;2022-11-20T13:21:21;9.40;99.90
25436;DHT22;13363;52.772;-3.890;2022-11-20T13:23:47;9.40;99.90
25436;DHT22;13363;52.772;-3.890;2022-11-20T13:26:22;9.40;99.90
25436;DHT22;13363;52.772;-3.890;2022-11-20T13:29:10;9.40;99.90
25436;DHT22;13363;52.772;-3.890;2022-11-20T13:31:41;9.50;99.90
25436;DHT22;13363;52.772;-3.890;2022-11-20T13:34:13;9.50;99.90
25436;DHT22;13363;52.772;-3.890;2022-11-20T13:36:56;9.50;99.90
25436;DHT22;13363;52.772;-3.890;2022-11-20T13:39:33;9.70;99.90
25436;DHT22;13363;52.772;-3.890;2022-11-20T13:42:02;9.70;99.90
25436;DHT22;13363;52.772;-3.890;2022-11-20T13:44:44;9.80;99.90
25436;DHT22;13363;52.772;-3.890;2022-11-20T13:47:26;9.70;99.90
25436;DHT22;13363;52.772;-3.890;2022-11-20T13:49:53;9.60;99.90
25436;DHT22;13363;52.772;-3.890;2022-11-20T13:52:39;9.60;99.90
25436;DHT22;13363;52.772;-3.890;2022-11-20T13:58:29;9.60;99.90
25436;DHT22;13363;52.772;-3.890;2022-11-20T14:01:20;9.60;99.90
25436;DHT22;13363;52.772;-3.890;2022-11-20T14:03:47;9.70;99.90
25436;DHT22;13363;52.772;-3.890;2022-11-20T14:06:29;9.70;99.90
25436;DHT22;13363;52.772;-3.890;2022-11-20T14:08:56;9.70;99.90
25436;DHT22;13363;52.772;-3.890;2022-11-20T14:11:23;9.60;99.90
25436;DHT22;13363;52.772;-3.890;2022-11-20T14:14:04;9.80;99.90
25436;DHT22;13363;52.772;-3.890;2022-11-20T14:16:38;9.80;99.90
25436;DHT22;13363;52.772;-3.890;2022-11-20T14:21:47;10.00;99.90
25436;DHT22;13363;52.772;-3.890;2022-11-20T14:24:18;10.00;99.90
25436;DHT22;13363;52.772;-3.890;2022-11-20T14:26:45;10.00;99.90
25436;DHT22;13363;52.772;-3.890;2022-11-20T14:29:35;10.10;99.90
25436;DHT22;13363;52.772;-3.890;2022-11-20T14:32:04;10.20;99.90
25436;DHT22;13363;52.772;-3.890;2022-11-20T14:34:37;10.10;99.90
25436;DHT22;13363;52.772;-3.890;2022-11-20T14:37:06;10.20;99.90
25436;DHT22;13363;52.772;-3.890;2022-11-20T14:39:39;10.20;99.90
25436;DHT22;13363;52.772;-3.890;2022-11-20T14:42:25;10.20;99.90
25436;DHT22;13363;52.772;-3.890;2022-11-20T14:44:55;10.20;99.90
25436;DHT22;13363;52.772;-3.890;2022-11-20T14:47:26;10.10;99.90
25436;DHT22;13363;52.772;-3.890;2022-11-20T14:49:53;10.10;99.90
25436;DHT22;13363;52.772;-3.890;2022-11-20T14:52:22;10.10;99.90
25436;DHT22;13363;52.772;-3.890;2022-11-20T14:54:50;10.10;99.90
25436;DHT22;13363;52.772;-3.890;2022-11-20T14:57:34;10.10;99.90
25436;DHT22;13363;52.772;-3.890;2022-11-20T15:02:46;10.20;99.90
25436;DHT22;13363;52.772;-3.890;2022-11-20T15:05:13;10.20;99.90
25436;DHT22;13363;52.772;-3.890;2022-11-20T15:07:42;10.30;99.90
25436;DHT22;13363;52.772;-3.890;2022-11-20T15:10:19;10.30;99.90
25436;DHT22;13363;52.772;-3.890;2022-11-20T15:18:12;10.10;99.90
25436;DHT22;13363;52.772;-3.890;2022-11-20T15:20:39;10.10;99.90
25436;DHT22;13363;52.772;-3.890;2022-11-20T15:23:16;10.10;99.90
25436;DHT22;13363;52.772;-3.890;2022-11-20T15:25:55;10.00;99.90
25436;DHT22;13363;52.772;-3.890;2022-11-20T15:28:31;9.90;99.90
25436;DHT22;13363;52.772;-3.890;2022-11-20T15:30:57;9.90;99.90
25436;DHT22;13363;52.772;-3.890;2022-11-20T15:33:24;9.90;99.90
25436;DHT22;13363;52.772;-3.890;2022-11-20T15:35:50;9.80;99.90
25436;DHT22;13363;52.772;-3.890;2022-11-20T15:38:16;9.80;99.90
25436;DHT22;13363;52.772;-3.890;2022-11-20T15:40:42;9.70;99.90
25436;DHT22;13363;52.772;-3.890;2022-11-20T15:43:07;9.70;99.90
25436;DHT22;13363;52.772;-3.890;2022-11-20T15:48:19;9.70;99.90
25436;DHT22;13363;52.772;-3.890;2022-11-20T15:53:23;9.60;99.90
25436;DHT22;13363;52.772;-3.890;2022-11-20T15:55:49;9.50;99.90
25436;DHT22;13363;52.772;-3.890;2022-11-20T15:58:14;9.50;99.90
25436;DHT22;13363;52.772;-3.890;2022-11-20T16:00:42;9.50;99.90
25436;DHT22;13363;52.772;-3.890;2022-11-20T16:03:12;9.50;99.90
25436;DHT22;13363;52.772;-3.890;2022-11-20T16:05:38;9.70;99.90
25436;DHT22;13363;52.772;-3.890;2022-11-20T16:08:04;9.90;99.90
25436;DHT22;13363;52.772;-3.890;2022-11-20T16:10:30;9.70;99.90
25436;DHT22;13363;52.772;-3.890;2022-11-20T16:12:56;9.60;99.90
25436;DHT22;13363;52.772;-3.890;2022-11-20T16:15:40;9.60;99.90
25436;DHT22;13363;52.772;-3.890;2022-11-20T16:18:20;9.60;99.90
25436;DHT22;13363;52.772;-3.890;2022-11-20T16:20:48;9.60;99.90
25436;DHT22;13363;52.772;-3.890;2022-11-20T16:23:15;9.70;99.90
25436;DHT22;13363;52.772;-3.890;2022-11-20T16:25:42;9.70;99.90
25436;DHT22;13363;52.772;-3.890;2022-11-20T16:28:08;9.70;99.90
25436;DHT22;13363;52.772;-3.890;2022-11-20T16:30:34;9.60;99.90
25436;DHT22;13363;52.772;-3.890;2022-11-20T16:33:01;9.50;99.90
25436;DHT22;13363;52.772;-3.890;2022-11-20T16:35:28;9.60;99.90
25436;DHT22;13363;52.772;-3.890;2022-11-20T16:37:55;9.70;99.90
25436;DHT22;13363;52.772;-3.890;2022-11-20T16:40:23;9.70;99.90
25436;DHT22;13363;52.772;-3.890;2022-11-20T16:42:49;9.60;99.90
25436;DHT22;13363;52.772;-3.890;2022-11-20T16:45:15;9.40;99.90
25436;DHT22;13363;52.772;-3.890;2022-11-20T16:47:41;9.30;99.90
25436;DHT22;13363;52.772;-3.890;2022-11-20T16:50:10;9.40;99.90
25436;DHT22;13363;52.772;-3.890;2022-11-20T16:52:35;9.30;99.90
25436;DHT22;13363;52.772;-3.890;2022-11-20T16:55:01;9.10;99.90
25436;DHT22;13363;52.772;-3.890;2022-11-20T16:57:28;9.00;99.90
25436;DHT22;13363;52.772;-3.890;2022-11-20T16:59:55;8.90;99.90
25436;DHT22;13363;52.772;-3.890;2022-11-20T17:02:21;8.80;99.90
25436;DHT22;13363;52.772;-3.890;2022-11-20T17:04:47;8.80;99.90
25436;DHT22;13363;52.772;-3.890;2022-11-20T17:07:14;8.70;99.90
25436;DHT22;13363;52.772;-3.890;2022-11-20T17:09:41;9.00;99.90